Time;durP1;ratioP1;P1;durP2;ratioP2;P2;SDS_P1;SDS_P2;PMS_P1;PMS_P2;Temp;Humidity;BMP_temperature;BMP_pressure;BME280_temperature;BME280_humidity;BME280_pressure;Samples;Min_cycle;Max_cycle;Signal;HPM_P1;HPM_P2
2022/05/15 00:00:58;;;;;;;5.45;3.85;;;;;;;;;;5037676;28;20159;-49
2022/05/15 00:03:24;;;;;;;7.03;4.27;;;;;;;;;;5035324;28;20517;-49
2022/05/15 00:05:53;;;;;;;5.50;4.50;;;;;;;;;;5036792;28;20534;-48
2022/05/15 00:08:19;;;;;;;5.00;4.07;;;;;;;;;;5040412;28;20021;-48
2022/05/15 00:10:44;;;;;;;5.45;4.35;;;;;;;;;;5043815;28;20048;-49
2022/05/15 00:13:09;;;;;;;5.50;4.13;;;;;;;;;;5043435;28;20044;-49
2022/05/15 00:15:35;;;;;;;5.10;4.05;;;;;;;;;;5045932;28;20292;-50
2022/05/15 00:18:00;;;;;;;5.47;4.03;;;;;;;;;;5040820;28;20032;-48
2022/05/15 00:20:25;;;;;;;5.18;4.25;;;;;;;;;;5043185;28;20255;-49
2022/05/15 00:22:51;;;;;;;4.80;4.10;;;;;;;;;;5038944;28;20009;-49
2022/05/15 00:25:16;;;;;;;5.07;4.07;;;;;;;;;;5045681;28;20400;-49
2022/05/15 00:27:42;;;;;;;4.50;4.00;;;;;;;;;;5042033;28;20271;-48
2022/05/15 00:30:07;;;;;;;4.20;3.60;;;;;;;;;;5041840;28;20037;-49
2022/05/15 00:32:32;;;;;;;4.85;4.35;;;;;;;;;;5035752;28;20589;-49
2022/05/15 00:34:58;;;;;;;5.67;4.03;;;;;;;;;;5040177;28;20005;-50
2022/05/15 00:37:23;;;;;;;5.45;4.38;;;;;;;;;;5041589;28;20271;-49
2022/05/15 00:39:48;;;;;;;6.00;4.47;;;;;;;;;;5038590;28;20119;-49
2022/05/15 00:42:14;;;;;;;4.27;3.77;;;;;;;;;;5039542;28;20264;-50
2022/05/15 00:44:39;;;;;;;6.03;4.13;;;;;;;;;;5038078;28;20260;-48
2022/05/15 00:47:05;;;;;;;4.82;4.20;;;;;;;;;;5042825;28;20135;-49
2022/05/15 00:49:30;;;;;;;4.82;4.07;;;;;;;;;;5043288;28;20013;-48
2022/05/15 00:51:59;;;;;;;4.73;3.77;;;;;;;;;;5037529;28;20126;-49
2022/05/15 00:54:31;;;;;;;4.88;3.90;;;;;;;;;;5038618;28;20294;-49
2022/05/15 00:57:10;;;;;;;4.65;3.72;;;;;;;;;;5038889;28;20033;-49
2022/05/15 00:59:38;;;;;;;4.43;3.78;;;;;;;;;;5036300;28;20044;-50
2022/05/15 01:02:03;;;;;;;4.97;3.88;;;;;;;;;;5040337;28;20024;-49
2022/05/15 01:04:29;;;;;;;6.20;3.80;;;;;;;;;;5043123;28;20500;-49
2022/05/15 01:06:55;;;;;;;5.07;3.80;;;;;;;;;;5040653;28;20024;-50
2022/05/15 01:09:20;;;;;;;5.72;4.28;;;;;;;;;;5044793;28;20029;-49
2022/05/15 01:11:46;;;;;;;4.35;3.65;;;;;;;;;;5042716;28;20041;-49
2022/05/15 01:14:12;;;;;;;4.20;3.58;;;;;;;;;;5040689;28;20074;-49
2022/05/15 01:16:37;;;;;;;4.40;4.00;;;;;;;;;;5040551;28;20025;-48
2022/05/15 01:19:03;;;;;;;4.15;3.65;;;;;;;;;;5041667;28;20083;-50
2022/05/15 01:21:34;;;;;;;4.38;3.80;;;;;;;;;;5040585;28;20025;-49
2022/05/15 01:24:00;;;;;;;4.43;3.70;;;;;;;;;;5043479;28;20055;-49
2022/05/15 01:26:25;;;;;;;4.20;3.80;;;;;;;;;;5036248;28;20115;-49
2022/05/15 01:28:51;;;;;;;4.93;3.53;;;;;;;;;;5041479;28;20048;-49
2022/05/15 01:31:16;;;;;;;4.68;3.80;;;;;;;;;;5040973;28;20106;-50
2022/05/15 01:33:44;;;;;;;4.30;3.63;;;;;;;;;;5039576;28;20013;-49
2022/05/15 01:36:09;;;;;;;4.43;3.55;;;;;;;;;;5038307;28;20255;-49
2022/05/15 01:38:35;;;;;;;4.17;3.60;;;;;;;;;;5037682;28;20057;-50
2022/05/15 01:41:00;;;;;;;3.83;3.43;;;;;;;;;;5042196;28;20107;-49
2022/05/15 01:43:25;;;;;;;4.47;3.43;;;;;;;;;;5042189;28;20260;-49
2022/05/15 01:45:50;;;;;;;4.00;3.60;;;;;;;;;;5044008;28;20271;-50
2022/05/15 01:48:16;;;;;;;3.80;3.40;;;;;;;;;;5037807;28;20001;-49
2022/05/15 01:50:41;;;;;;;4.27;3.70;;;;;;;;;;5040052;28;20023;-50
2022/05/15 01:53:06;;;;;;;4.10;3.30;;;;;;;;;;5037959;28;20858;-50
2022/05/15 01:55:31;;;;;;;3.50;3.20;;;;;;;;;;5041393;28;20021;-49
2022/05/15 01:57:56;;;;;;;3.90;3.10;;;;;;;;;;5036037;28;20023;-50
2022/05/15 02:00:23;;;;;;;4.37;3.30;;;;;;;;;;5040919;28;20005;-49
2022/05/15 02:02:48;;;;;;;4.65;3.55;;;;;;;;;;5039960;28;20017;-49
2022/05/15 02:05:13;;;;;;;3.88;3.33;;;;;;;;;;5038954;28;20488;-49
2022/05/15 02:07:39;;;;;;;4.07;3.23;;;;;;;;;;5041382;28;20078;-50
2022/05/15 02:10:04;;;;;;;4.10;3.30;;;;;;;;;;5038511;28;20029;-49
2022/05/15 02:12:30;;;;;;;4.18;3.50;;;;;;;;;;5039096;28;20517;-49
2022/05/15 02:14:55;;;;;;;3.93;3.47;;;;;;;;;;5037558;28;20070;-48
2022/05/15 02:17:20;;;;;;;3.78;3.38;;;;;;;;;;5031185;28;20048;-49
2022/05/15 02:19:45;;;;;;;3.77;3.27;;;;;;;;;;5038293;28;20017;-49
2022/05/15 02:22:12;;;;;;;3.90;3.50;;;;;;;;;;5039186;28;20088;-48
2022/05/15 02:24:37;;;;;;;3.75;3.30;;;;;;;;;;5041274;28;20024;-49
2022/05/15 02:27:03;;;;;;;3.40;3.10;;;;;;;;;;5036078;28;20009;-48
2022/05/15 02:29:28;;;;;;;3.35;3.05;;;;;;;;;;5037771;28;21231;-48
2022/05/15 02:31:53;;;;;;;4.10;3.60;;;;;;;;;;5040997;28;20040;-49
2022/05/15 02:34:18;;;;;;;3.50;3.20;;;;;;;;;;5039725;28;20060;-50
2022/05/15 02:36:43;;;;;;;3.47;3.17;;;;;;;;;;5033102;28;20033;-48
2022/05/15 02:39:09;;;;;;;3.50;3.00;;;;;;;;;;5041047;28;20029;-50
2022/05/15 02:41:34;;;;;;;4.65;3.30;;;;;;;;;;5040849;28;20017;-48
2022/05/15 02:44:00;;;;;;;3.70;3.25;;;;;;;;;;5037842;28;20024;-48
2022/05/15 02:46:25;;;;;;;3.93;3.27;;;;;;;;;;5038770;28;20106;-49
2022/05/15 02:51:34;;;;;;;3.90;3.25;;;;;;;;;;5038869;28;20075;-47
2022/05/15 02:53:59;;;;;;;3.33;2.87;;;;;;;;;;5038275;28;20695;-50
2022/05/15 02:56:25;;;;;;;3.50;3.17;;;;;;;;;;5039872;28;20734;-49
2022/05/15 02:58:51;;;;;;;4.65;3.10;;;;;;;;;;5042253;28;20027;-50
2022/05/15 03:01:16;;;;;;;3.50;3.00;;;;;;;;;;5037457;28;20021;-49
2022/05/15 03:03:41;;;;;;;2.90;2.60;;;;;;;;;;5039457;28;20718;-49
2022/05/15 03:06:07;;;;;;;3.22;2.80;;;;;;;;;;5038914;28;20793;-50
2022/05/15 03:08:36;;;;;;;3.22;2.90;;;;;;;;;;5039835;28;20100;-50
2022/05/15 03:11:01;;;;;;;3.57;2.97;;;;;;;;;;5039660;28;20033;-48
2022/05/15 03:13:26;;;;;;;3.67;3.10;;;;;;;;;;5037964;28;20027;-48
2022/05/15 03:15:51;;;;;;;3.47;2.65;;;;;;;;;;5039659;28;20111;-54
2022/05/15 03:18:17;;;;;;;3.35;3.05;;;;;;;;;;5042512;28;20435;-49
2022/05/15 03:20:42;;;;;;;3.63;3.10;;;;;;;;;;5039346;28;20025;-49
2022/05/15 03:23:07;;;;;;;4.60;3.00;;;;;;;;;;5039312;28;20107;-49
2022/05/15 03:25:33;;;;;;;3.33;2.60;;;;;;;;;;5039694;28;20268;-51
2022/05/15 03:27:58;;;;;;;3.95;3.05;;;;;;;;;;5036015;28;20032;-49
2022/05/15 03:30:24;;;;;;;3.40;3.00;;;;;;;;;;5040158;28;20052;-49
2022/05/15 03:32:49;;;;;;;3.20;2.70;;;;;;;;;;5041922;28;20516;-48
2022/05/15 03:35:14;;;;;;;3.23;2.93;;;;;;;;;;5038080;28;20333;-48
2022/05/15 03:37:40;;;;;;;3.03;2.60;;;;;;;;;;5037467;28;20033;-48
2022/05/15 03:40:05;;;;;;;3.00;2.70;;;;;;;;;;5037352;28;20350;-49
2022/05/15 03:42:31;;;;;;;3.38;3.08;;;;;;;;;;5042124;28;20013;-49
2022/05/15 03:44:56;;;;;;;3.63;2.95;;;;;;;;;;5042940;28;20032;-49
2022/05/15 03:47:22;;;;;;;4.38;2.58;;;;;;;;;;5041860;28;20107;-50
2022/05/15 03:49:47;;;;;;;3.10;2.80;;;;;;;;;;5042781;28;20438;-51
2022/05/15 03:52:14;;;;;;;2.92;2.50;;;;;;;;;;5041783;28;20102;-49
2022/05/15 03:54:39;;;;;;;3.40;2.78;;;;;;;;;;5040409;28;20547;-50
2022/05/15 03:57:05;;;;;;;3.47;2.83;;;;;;;;;;5040460;28;20108;-50
2022/05/15 03:59:34;;;;;;;3.40;2.70;;;;;;;;;;5042606;28;20266;-49
2022/05/15 04:02:00;;;;;;;3.15;2.80;;;;;;;;;;5041474;28;20039;-50
2022/05/15 04:04:25;;;;;;;3.45;2.97;;;;;;;;;;5045512;28;20025;-50
2022/05/15 04:06:51;;;;;;;3.42;3.03;;;;;;;;;;5037498;28;20122;-49
2022/05/15 04:09:16;;;;;;;3.40;3.10;;;;;;;;;;5042913;28;20071;-49
2022/05/15 04:11:41;;;;;;;3.10;2.73;;;;;;;;;;5039087;28;20801;-49
2022/05/15 04:14:06;;;;;;;3.47;3.17;;;;;;;;;;5039744;28;20264;-49
2022/05/15 04:16:32;;;;;;;3.22;2.92;;;;;;;;;;5043057;28;20071;-49
2022/05/15 04:18:57;;;;;;;4.03;3.35;;;;;;;;;;5044465;28;20424;-49
2022/05/15 04:21:22;;;;;;;2.65;2.35;;;;;;;;;;5040878;28;20111;-50
2022/05/15 04:23:48;;;;;;;3.35;2.92;;;;;;;;;;5040432;28;20112;-48
2022/05/15 04:26:13;;;;;;;3.40;2.87;;;;;;;;;;5045509;28;20025;-48
2022/05/15 04:28:39;;;;;;;3.42;2.90;;;;;;;;;;5038986;28;20402;-49
2022/05/15 04:31:04;;;;;;;3.10;2.77;;;;;;;;;;5043183;28;20056;-48
2022/05/15 04:33:29;;;;;;;3.40;2.70;;;;;;;;;;5041065;28;20271;-49
2022/05/15 04:35:55;;;;;;;3.17;2.58;;;;;;;;;;5042300;28;20285;-49
2022/05/15 04:38:20;;;;;;;3.72;3.10;;;;;;;;;;5042033;28;20483;-50
2022/05/15 04:40:45;;;;;;;5.30;3.33;;;;;;;;;;5040074;28;20440;-50
2022/05/15 04:43:10;;;;;;;6.73;3.93;;;;;;;;;;5043890;28;20495;-50
2022/05/15 04:45:36;;;;;;;7.40;4.30;;;;;;;;;;5042705;28;20263;-48
2022/05/15 04:48:01;;;;;;;6.65;3.90;;;;;;;;;;5040243;28;20278;-49
2022/05/15 04:50:26;;;;;;;6.37;4.63;;;;;;;;;;5033690;28;20048;-49
2022/05/15 04:52:51;;;;;;;6.40;4.60;;;;;;;;;;5035632;28;20431;-49
2022/05/15 04:55:17;;;;;;;6.93;4.43;;;;;;;;;;5033632;28;20533;-49
2022/05/15 04:57:42;;;;;;;7.38;4.68;;;;;;;;;;5031703;28;20147;-48
2022/05/15 05:00:09;;;;;;;13.70;5.10;;;;;;;;;;5039304;28;20544;-49
2022/05/15 05:02:34;;;;;;;6.38;4.88;;;;;;;;;;5042137;28;20068;-49
2022/05/15 05:04:59;;;;;;;7.73;4.90;;;;;;;;;;5041654;28;20049;-50
2022/05/15 05:07:26;;;;;;;7.50;5.20;;;;;;;;;;5041855;28;20032;-49
2022/05/15 05:09:51;;;;;;;7.95;5.30;;;;;;;;;;5031939;28;20017;-48
2022/05/15 05:12:17;;;;;;;7.97;5.30;;;;;;;;;;5024531;28;20033;-48
2022/05/15 05:14:42;;;;;;;8.87;4.93;;;;;;;;;;5031151;28;20338;-48
2022/05/15 05:17:07;;;;;;;8.20;4.77;;;;;;;;;;5027076;28;20017;-47
2022/05/15 05:19:33;;;;;;;7.65;5.15;;;;;;;;;;5034499;28;20025;-48
2022/05/15 05:21:58;;;;;;;7.73;4.90;;;;;;;;;;5039899;28;20029;-49
2022/05/15 05:24:24;;;;;;;9.03;4.50;;;;;;;;;;5041640;28;20452;-48
2022/05/15 05:26:49;;;;;;;6.78;3.70;;;;;;;;;;5035058;28;20388;-49
2022/05/15 05:29:14;;;;;;;8.73;4.37;;;;;;;;;;5023596;28;20574;-50
2022/05/15 05:31:39;;;;;;;9.27;4.20;;;;;;;;;;5025799;28;20311;-48
2022/05/15 05:34:05;;;;;;;6.80;3.67;;;;;;;;;;5026263;28;20267;-50
2022/05/15 05:36:30;;;;;;;7.53;3.60;;;;;;;;;;5038635;28;20028;-49
2022/05/15 05:38:56;;;;;;;8.60;3.80;;;;;;;;;;5027746;28;20010;-49
2022/05/15 05:41:22;;;;;;;7.80;3.60;;;;;;;;;;5041231;28;20104;-50
2022/05/15 05:43:47;;;;;;;6.47;3.70;;;;;;;;;;5040282;28;20167;-50
2022/05/15 05:46:12;;;;;;;6.43;3.30;;;;;;;;;;5036267;28;20263;-50
2022/05/15 05:48:37;;;;;;;6.47;3.00;;;;;;;;;;5041490;28;20036;-49
2022/05/15 05:51:03;;;;;;;9.13;3.42;;;;;;;;;;5038004;28;20867;-49
2022/05/15 05:53:28;;;;;;;5.47;3.30;;;;;;;;;;5037489;28;20024;-49
2022/05/15 05:55:53;;;;;;;4.87;3.07;;;;;;;;;;5041480;28;20507;-49
2022/05/15 05:58:18;;;;;;;8.33;3.40;;;;;;;;;;5041632;28;20275;-50
2022/05/15 06:00:44;;;;;;;7.43;3.10;;;;;;;;;;5039704;28;20274;-50
2022/05/15 06:05:52;;;;;;;6.47;3.65;;;;;;;;;;5040538;28;20376;-50
2022/05/15 06:08:18;;;;;;;6.90;3.83;;;;;;;;;;5041309;28;20017;-51
2022/05/15 06:10:43;;;;;;;6.15;3.90;;;;;;;;;;5039605;28;20259;-50
2022/05/15 06:13:09;;;;;;;6.85;3.88;;;;;;;;;;5039359;28;20032;-51
2022/05/15 06:15:34;;;;;;;6.10;3.40;;;;;;;;;;5040087;28;20021;-50
2022/05/15 06:18:00;;;;;;;6.20;3.58;;;;;;;;;;5039174;28;20275;-50
2022/05/15 06:20:25;;;;;;;5.80;3.58;;;;;;;;;;5035666;28;20724;-51
2022/05/15 06:22:50;;;;;;;7.35;3.25;;;;;;;;;;5038243;28;20100;-49
2022/05/15 06:25:16;;;;;;;4.93;3.20;;;;;;;;;;5038669;28;20441;-53
2022/05/15 06:27:41;;;;;;;5.57;2.90;;;;;;;;;;5038610;28;20023;-51
2022/05/15 06:30:07;;;;;;;5.45;3.10;;;;;;;;;;5039543;28;20048;-50
2022/05/15 06:32:32;;;;;;;7.78;3.05;;;;;;;;;;5042401;28;20029;-50
2022/05/15 06:34:59;;;;;;;6.53;3.33;;;;;;;;;;5036837;28;20079;-49
2022/05/15 06:37:24;;;;;;;5.80;3.23;;;;;;;;;;5035932;28;20021;-50
2022/05/15 06:39:50;;;;;;;6.90;2.78;;;;;;;;;;5036098;28;21098;-49
2022/05/15 06:42:15;;;;;;;6.93;3.30;;;;;;;;;;5036140;28;20059;-48
2022/05/15 06:44:40;;;;;;;5.57;2.70;;;;;;;;;;5038793;28;20021;-50
2022/05/15 06:47:05;;;;;;;8.65;2.67;;;;;;;;;;5038459;28;20468;-50
2022/05/15 06:49:31;;;;;;;3.40;2.80;;;;;;;;;;5039098;28;20107;-50
2022/05/15 06:51:56;;;;;;;4.53;2.70;;;;;;;;;;5037176;28;20404;-51
2022/05/15 06:54:21;;;;;;;4.60;2.50;;;;;;;;;;5038488;28;20271;-50
2022/05/15 06:59:31;;;;;;;4.90;2.70;;;;;;;;;;5039159;28;20047;-50
2022/05/15 07:01:57;;;;;;;4.43;2.97;;;;;;;;;;5040422;28;20713;-49
2022/05/15 07:04:22;;;;;;;6.23;2.47;;;;;;;;;;5036685;28;20213;-50
2022/05/15 07:06:47;;;;;;;3.70;2.20;;;;;;;;;;5042394;28;20259;-49
2022/05/15 07:09:12;;;;;;;4.67;2.50;;;;;;;;;;5038381;28;20971;-49
2022/05/15 07:11:39;;;;;;;5.60;2.30;;;;;;;;;;5040614;28;20322;-50
2022/05/15 07:14:04;;;;;;;5.10;2.33;;;;;;;;;;5036280;28;20025;-49
2022/05/15 07:16:30;;;;;;;5.30;3.00;;;;;;;;;;5039534;28;20078;-49
2022/05/15 07:18:55;;;;;;;4.60;2.50;;;;;;;;;;5039430;28;20028;-49
2022/05/15 07:21:20;;;;;;;4.20;2.40;;;;;;;;;;5043250;28;20883;-50
2022/05/15 07:23:46;;;;;;;4.17;2.20;;;;;;;;;;5040599;28;20627;-50
2022/05/15 07:26:11;;;;;;;3.55;2.47;;;;;;;;;;5043178;28;20263;-50
2022/05/15 07:28:36;;;;;;;5.20;2.47;;;;;;;;;;5046250;28;20041;-50
2022/05/15 07:31:01;;;;;;;5.03;2.97;;;;;;;;;;5040475;28;20870;-49
2022/05/15 07:33:27;;;;;;;6.23;2.40;;;;;;;;;;5044831;28;20286;-51
2022/05/15 07:35:54;;;;;;;3.28;2.00;;;;;;;;;;5040808;28;20259;-50
2022/05/15 07:38:20;;;;;;;5.93;2.42;;;;;;;;;;5043098;28;20032;-50
2022/05/15 07:40:45;;;;;;;4.20;2.27;;;;;;;;;;5046428;28;20017;-50
2022/05/15 07:43:11;;;;;;;3.00;2.00;;;;;;;;;;5042452;28;20012;-51
2022/05/15 07:45:36;;;;;;;4.28;2.20;;;;;;;;;;5043763;28;20031;-50
2022/05/15 07:48:01;;;;;;;5.55;2.42;;;;;;;;;;5043790;28;20466;-50
2022/05/15 07:50:27;;;;;;;10.90;2.10;;;;;;;;;;5042826;28;20385;-50
2022/05/15 07:52:52;;;;;;;4.25;2.08;;;;;;;;;;5039163;28;20060;-49
2022/05/15 07:55:17;;;;;;;5.27;2.20;;;;;;;;;;5037551;28;20013;-49
2022/05/15 07:57:42;;;;;;;2.90;2.00;;;;;;;;;;5045674;28;20272;-51
2022/05/15 08:00:09;;;;;;;5.83;2.03;;;;;;;;;;5045622;28;20032;-50
2022/05/15 08:02:34;;;;;;;4.00;1.55;;;;;;;;;;5026546;28;20025;-49
2022/05/15 08:08:02;;;;;;;7.40;2.05;;;;;;;;;;5043733;28;20043;-49
2022/05/15 08:10:30;;;;;;;4.72;1.80;;;;;;;;;;5045653;28;20028;-49
2022/05/15 08:12:55;;;;;;;4.15;1.90;;;;;;;;;;5041017;28;20587;-50
2022/05/15 08:15:21;;;;;;;3.97;2.00;;;;;;;;;;5042590;28;20020;-48
2022/05/15 08:17:46;;;;;;;5.93;1.80;;;;;;;;;;5039499;28;20024;-50
2022/05/15 08:25:39;;;;;;;4.28;1.65;;;;;;;;;;5043464;28;20035;-50
2022/05/15 08:28:05;;;;;;;3.92;1.60;;;;;;;;;;5041451;28;20045;-50
2022/05/15 08:30:31;;;;;;;3.72;1.90;;;;;;;;;;5043904;28;20515;-51
2022/05/15 08:32:56;;;;;;;2.30;1.80;;;;;;;;;;5037622;28;20106;-50
2022/05/15 08:35:22;;;;;;;4.97;1.50;;;;;;;;;;5041192;28;20104;-50
2022/05/15 08:37:47;;;;;;;3.58;1.60;;;;;;;;;;5043386;28;20306;-49
2022/05/15 08:40:12;;;;;;;3.37;1.70;;;;;;;;;;5040455;28;20525;-49
2022/05/15 08:42:43;;;;;;;7.20;2.00;;;;;;;;;;5040421;28;20773;-52
2022/05/15 08:45:09;;;;;;;3.85;1.88;;;;;;;;;;5040188;28;20013;-50
2022/05/15 08:47:42;;;;;;;4.20;1.60;;;;;;;;;;5042187;28;20036;-49
2022/05/15 08:50:09;;;;;;;3.00;1.60;;;;;;;;;;5039446;28;20104;-50
2022/05/15 08:52:43;;;;;;;2.50;1.80;;;;;;;;;;5040205;28;20032;-50
2022/05/15 08:55:12;;;;;;;4.35;2.13;;;;;;;;;;5043234;28;20029;-50
2022/05/15 08:57:40;;;;;;;4.95;1.83;;;;;;;;;;5040306;28;20399;-49
2022/05/15 09:00:10;;;;;;;4.15;2.08;;;;;;;;;;5042495;28;20119;-50
2022/05/15 09:02:36;;;;;;;4.25;2.03;;;;;;;;;;5035665;28;20048;-50
2022/05/15 09:05:01;;;;;;;4.10;1.92;;;;;;;;;;5039507;28;20033;-49
2022/05/15 09:07:46;;;;;;;4.10;1.92;;;;;;;;;;5041975;28;20029;-51
2022/05/15 09:10:15;;;;;;;5.47;1.70;;;;;;;;;;5036826;28;20028;-49
2022/05/15 09:12:41;;;;;;;5.72;1.30;;;;;;;;;;5041104;28;20500;-50
2022/05/15 09:15:06;;;;;;;5.30;2.08;;;;;;;;;;5038381;28;20031;-50
2022/05/15 09:17:38;;;;;;;4.45;1.73;;;;;;;;;;5040960;28;20013;-50
2022/05/15 09:20:08;;;;;;;3.53;1.80;;;;;;;;;;5039856;28;20017;-50
2022/05/15 09:22:41;;;;;;;4.13;1.77;;;;;;;;;;5038738;28;20497;-52
2022/05/15 09:25:10;;;;;;;3.50;1.90;;;;;;;;;;5039882;28;20090;-50
2022/05/15 09:27:35;;;;;;;4.00;1.80;;;;;;;;;;5042426;28;20012;-49
2022/05/15 09:30:05;;;;;;;3.67;1.42;;;;;;;;;;5040464;28;20045;-49
2022/05/15 09:32:36;;;;;;;4.35;1.80;;;;;;;;;;5019177;28;20040;-50
2022/05/15 09:35:02;;;;;;;2.92;1.17;;;;;;;;;;5036727;28;20029;-51
2022/05/15 09:40:20;;;;;;;3.05;1.25;;;;;;;;;;5043829;28;20059;-50
2022/05/15 09:45:37;;;;;;;1.98;1.33;;;;;;;;;;5038880;28;20271;-50
2022/05/15 09:48:04;;;;;;;4.32;1.35;;;;;;;;;;5036380;28;20017;-49
2022/05/15 09:50:42;;;;;;;1.92;1.30;;;;;;;;;;5042600;28;20029;-51
2022/05/15 09:53:12;;;;;;;2.97;1.30;;;;;;;;;;5040032;28;20035;-49
2022/05/15 09:55:37;;;;;;;2.80;1.55;;;;;;;;;;5040052;28;20051;-49
2022/05/15 09:58:04;;;;;;;3.67;1.60;;;;;;;;;;5040660;28;20052;-50
2022/05/15 10:00:30;;;;;;;5.05;1.52;;;;;;;;;;5040064;28;20678;-50
2022/05/15 10:03:03;;;;;;;2.88;1.58;;;;;;;;;;5037344;28;20036;-51
2022/05/15 10:05:29;;;;;;;2.10;1.27;;;;;;;;;;5041707;28;20100;-50
2022/05/15 10:07:54;;;;;;;3.50;1.50;;;;;;;;;;5033434;28;20612;-50
2022/05/15 10:10:21;;;;;;;2.27;1.30;;;;;;;;;;5036229;28;20029;-50
2022/05/15 10:12:49;;;;;;;3.25;1.40;;;;;;;;;;5042325;28;21516;-49
2022/05/15 10:15:14;;;;;;;2.50;1.40;;;;;;;;;;5040347;28;20035;-50
2022/05/15 10:17:43;;;;;;;3.42;1.48;;;;;;;;;;5035052;28;20017;-50
2022/05/15 10:20:09;;;;;;;2.60;1.47;;;;;;;;;;5038621;28;20032;-51
2022/05/15 10:22:36;;;;;;;2.43;1.30;;;;;;;;;;5039159;28;20020;-50
2022/05/15 10:25:10;;;;;;;2.80;1.35;;;;;;;;;;5041437;28;20737;-51
2022/05/15 10:27:36;;;;;;;5.28;1.85;;;;;;;;;;5039752;28;20053;-49
2022/05/15 10:30:04;;;;;;;3.80;1.60;;;;;;;;;;5037003;28;20057;-50
2022/05/15 10:32:29;;;;;;;2.22;1.67;;;;;;;;;;5038097;28;20036;-52
2022/05/15 10:34:55;;;;;;;3.78;1.65;;;;;;;;;;5034780;28;20623;-50
2022/05/15 10:37:39;;;;;;;3.08;1.60;;;;;;;;;;5040660;28;20020;-50
2022/05/15 10:40:10;;;;;;;3.47;1.35;;;;;;;;;;5035134;28;20012;-50
2022/05/15 10:42:54;;;;;;;3.22;1.40;;;;;;;;;;5040810;28;20029;-50
2022/05/15 10:45:38;;;;;;;3.85;1.80;;;;;;;;;;5034189;28;20079;-49
2022/05/15 10:48:14;;;;;;;2.25;1.38;;;;;;;;;;5036816;28;20579;-50
2022/05/15 10:50:46;;;;;;;2.83;1.63;;;;;;;;;;5035299;28;20024;-49
2022/05/15 10:59:00;;;;;;;6.18;1.60;;;;;;;;;;5036208;28;20261;-50
2022/05/15 11:01:25;;;;;;;2.58;1.80;;;;;;;;;;5036646;28;20021;-50
2022/05/15 11:03:55;;;;;;;3.90;1.30;;;;;;;;;;5039103;28;20023;-51
2022/05/15 11:06:20;;;;;;;3.63;1.63;;;;;;;;;;5035575;28;20048;-49
2022/05/15 11:08:48;;;;;;;3.03;1.47;;;;;;;;;;5040863;28;20063;-51
2022/05/15 11:11:30;;;;;;;3.83;1.85;;;;;;;;;;5038633;28;20028;-50
2022/05/15 11:13:56;;;;;;;5.63;1.40;;;;;;;;;;5036893;28;20484;-51
2022/05/15 11:16:27;;;;;;;3.60;1.67;;;;;;;;;;5036082;28;20107;-50
2022/05/15 11:18:52;;;;;;;4.32;1.88;;;;;;;;;;5038876;28;20026;-50
2022/05/15 11:21:20;;;;;;;5.37;1.63;;;;;;;;;;5026645;28;20124;-50
2022/05/15 11:23:48;;;;;;;4.82;1.55;;;;;;;;;;5022045;28;20496;-50
2022/05/15 11:26:15;;;;;;;4.30;1.75;;;;;;;;;;5038480;28;20013;-51
2022/05/15 11:28:42;;;;;;;3.15;1.45;;;;;;;;;;5038098;28;20136;-49
2022/05/15 11:31:15;;;;;;;5.10;2.10;;;;;;;;;;5038280;28;20036;-50
2022/05/15 11:33:43;;;;;;;3.72;1.50;;;;;;;;;;5032882;28;20068;-49
2022/05/15 11:36:08;;;;;;;6.25;1.65;;;;;;;;;;5036462;28;20013;-49
2022/05/15 11:38:44;;;;;;;3.90;1.20;;;;;;;;;;5040489;28;20350;-50
2022/05/15 11:41:28;;;;;;;2.90;1.60;;;;;;;;;;5039593;28;20071;-51
2022/05/15 11:44:00;;;;;;;3.08;1.73;;;;;;;;;;5040276;28;20025;-50
2022/05/15 11:46:44;;;;;;;2.67;1.80;;;;;;;;;;5040315;28;20025;-50
2022/05/15 11:49:11;;;;;;;5.20;1.48;;;;;;;;;;5037641;28;20021;-49
2022/05/15 11:51:36;;;;;;;3.03;1.73;;;;;;;;;;5036505;28;20024;-50
2022/05/15 11:54:03;;;;;;;3.30;1.50;;;;;;;;;;5037527;28;20028;-50
2022/05/15 11:56:28;;;;;;;3.05;1.50;;;;;;;;;;5036482;28;20025;-50
2022/05/15 11:58:54;;;;;;;3.50;1.70;;;;;;;;;;5040606;28;20017;-50
2022/05/15 12:01:39;;;;;;;2.45;1.60;;;;;;;;;;5037679;28;20271;-50
2022/05/15 12:04:27;;;;;;;3.65;1.65;;;;;;;;;;5044613;28;20123;-50
2022/05/15 12:06:55;;;;;;;4.30;1.90;;;;;;;;;;5020191;28;21048;-49
2022/05/15 12:09:20;;;;;;;3.58;2.22;;;;;;;;;;5044676;28;20028;-50
2022/05/15 12:11:49;;;;;;;3.50;1.57;;;;;;;;;;5039747;28;20029;-50
2022/05/15 12:14:27;;;;;;;5.03;1.60;;;;;;;;;;5042098;28;20411;-50
2022/05/15 12:16:58;;;;;;;3.80;2.13;;;;;;;;;;5043559;28;20015;-51
2022/05/15 12:19:24;;;;;;;4.88;1.73;;;;;;;;;;5039441;28;20024;-51
2022/05/15 12:21:51;;;;;;;4.40;1.83;;;;;;;;;;5043415;28;20025;-49
2022/05/15 12:24:28;;;;;;;3.97;1.50;;;;;;;;;;5038841;28;20312;-50
2022/05/15 12:26:53;;;;;;;3.25;1.95;;;;;;;;;;5033087;28;20024;-50
2022/05/15 12:29:22;;;;;;;2.80;1.80;;;;;;;;;;5044574;28;20063;-50
2022/05/15 12:31:47;;;;;;;3.92;2.30;;;;;;;;;;5041093;28;20049;-51
2022/05/15 12:34:31;;;;;;;4.45;1.77;;;;;;;;;;5041657;28;20031;-50
2022/05/15 12:37:00;;;;;;;4.20;1.50;;;;;;;;;;5043559;28;20048;-49
2022/05/15 12:39:27;;;;;;;3.97;1.80;;;;;;;;;;5040939;28;20036;-51
2022/05/15 12:41:52;;;;;;;2.08;1.50;;;;;;;;;;5038770;28;20466;-49
2022/05/15 12:44:31;;;;;;;4.20;1.60;;;;;;;;;;5038605;28;20013;-50
2022/05/15 12:46:57;;;;;;;5.18;1.83;;;;;;;;;;5037188;28;20021;-49
2022/05/15 12:49:29;;;;;;;3.13;1.90;;;;;;;;;;5038913;28;20027;-50
2022/05/15 12:52:07;;;;;;;3.13;1.65;;;;;;;;;;5040839;28;21183;-51
2022/05/15 12:54:33;;;;;;;5.03;1.85;;;;;;;;;;5041077;28;20112;-51
2022/05/15 12:56:58;;;;;;;3.90;1.77;;;;;;;;;;5041549;28;20104;-49
2022/05/15 12:59:24;;;;;;;4.38;1.88;;;;;;;;;;5042770;28;20395;-49
2022/05/15 13:01:49;;;;;;;3.10;1.60;;;;;;;;;;5035194;28;20028;-51
2022/05/15 13:04:16;;;;;;;2.70;1.90;;;;;;;;;;5038274;28;20023;-50
2022/05/15 13:06:46;;;;;;;6.15;1.95;;;;;;;;;;5041341;28;20280;-51
2022/05/15 13:09:17;;;;;;;3.90;1.75;;;;;;;;;;5043855;28;20498;-52
2022/05/15 13:11:43;;;;;;;3.03;1.92;;;;;;;;;;5041955;28;20218;-51
2022/05/15 13:14:18;;;;;;;4.82;2.08;;;;;;;;;;5038085;28;20597;-51
2022/05/15 13:16:44;;;;;;;3.60;2.00;;;;;;;;;;5039571;28;20104;-50
2022/05/15 13:19:11;;;;;;;3.30;1.58;;;;;;;;;;5041632;28;20754;-51
2022/05/15 13:21:41;;;;;;;2.33;1.50;;;;;;;;;;5041499;28;20595;-51
2022/05/15 13:24:06;;;;;;;3.20;1.67;;;;;;;;;;5040847;28;20013;-50
2022/05/15 13:26:37;;;;;;;4.18;1.70;;;;;;;;;;5037737;28;20016;-52
2022/05/15 13:29:05;;;;;;;3.17;1.90;;;;;;;;;;5021812;28;20044;-52
2022/05/15 13:31:31;;;;;;;3.17;1.70;;;;;;;;;;5035357;28;20491;-50
2022/05/15 13:33:57;;;;;;;3.50;2.15;;;;;;;;;;5040234;28;20511;-50
2022/05/15 13:36:22;;;;;;;3.95;1.70;;;;;;;;;;5038596;28;20013;-51
2022/05/15 13:44:18;;;;;;;2.70;1.85;;;;;;;;;;5037283;28;20059;-51
2022/05/15 13:47:02;;;;;;;3.42;1.90;;;;;;;;;;5042341;28;20029;-52
2022/05/15 13:49:38;;;;;;;4.03;1.90;;;;;;;;;;5041085;28;20506;-52
2022/05/15 13:52:22;;;;;;;4.03;2.13;;;;;;;;;;5036252;28;20033;-53
2022/05/15 13:54:47;;;;;;;3.25;1.90;;;;;;;;;;5040787;28;20155;-49
2022/05/15 13:57:13;;;;;;;4.82;2.20;;;;;;;;;;5039158;28;20127;-49
2022/05/15 13:59:42;;;;;;;3.20;1.90;;;;;;;;;;5041943;28;20028;-50
2022/05/15 14:02:07;;;;;;;3.90;1.70;;;;;;;;;;5041962;28;20104;-50
2022/05/15 14:04:33;;;;;;;5.17;2.10;;;;;;;;;;5039851;28;20432;-51
2022/05/15 14:06:58;;;;;;;4.83;2.03;;;;;;;;;;5037872;28;20104;-51
2022/05/15 14:09:40;;;;;;;3.83;1.77;;;;;;;;;;5041328;28;20021;-51
2022/05/15 14:12:05;;;;;;;3.67;1.85;;;;;;;;;;5034455;28;20503;-51
2022/05/15 14:14:51;;;;;;;3.50;1.80;;;;;;;;;;5031705;28;20029;-51
2022/05/15 14:17:29;;;;;;;3.38;1.88;;;;;;;;;;5037486;28;20017;-50
2022/05/15 14:20:02;;;;;;;2.90;1.52;;;;;;;;;;5036782;28;20106;-51
2022/05/15 14:22:27;;;;;;;4.72;1.90;;;;;;;;;;5043373;28;20039;-50
2022/05/15 14:24:54;;;;;;;3.50;2.03;;;;;;;;;;5040307;28;20005;-52
2022/05/15 14:27:19;;;;;;;2.53;1.73;;;;;;;;;;5040927;28;20373;-51
2022/05/15 14:29:45;;;;;;;4.18;1.70;;;;;;;;;;5034520;28;20569;-52
2022/05/15 14:32:10;;;;;;;5.00;2.10;;;;;;;;;;5040796;28;20029;-53
2022/05/15 14:34:35;;;;;;;5.85;2.10;;;;;;;;;;5040988;28;20017;-53
2022/05/15 14:37:01;;;;;;;3.92;2.03;;;;;;;;;;5033729;28;20060;-53
2022/05/15 14:39:26;;;;;;;4.03;1.80;;;;;;;;;;5037314;28;20086;-52
2022/05/15 14:41:51;;;;;;;4.28;2.00;;;;;;;;;;5040838;28;20000;-52
2022/05/15 14:44:16;;;;;;;3.80;2.13;;;;;;;;;;5041298;28;20021;-53
2022/05/15 14:46:42;;;;;;;4.53;2.10;;;;;;;;;;5040655;28;20025;-52
2022/05/15 14:49:09;;;;;;;3.85;2.08;;;;;;;;;;5038064;28;20299;-52
2022/05/15 14:51:37;;;;;;;4.68;2.45;;;;;;;;;;5038671;28;20043;-51
2022/05/15 14:54:03;;;;;;;2.75;1.80;;;;;;;;;;5041915;28;20021;-51
2022/05/15 14:56:28;;;;;;;3.90;2.13;;;;;;;;;;5037887;28;20025;-52
2022/05/15 14:58:55;;;;;;;3.53;1.70;;;;;;;;;;5035023;28;20032;-55
2022/05/15 15:01:21;;;;;;;2.67;2.10;;;;;;;;;;5035185;28;20028;-53
2022/05/15 15:03:46;;;;;;;3.20;1.67;;;;;;;;;;5038159;28;20484;-52
2022/05/15 15:06:11;;;;;;;7.18;2.25;;;;;;;;;;5034832;28;20411;-53
2022/05/15 15:08:37;;;;;;;3.30;1.98;;;;;;;;;;5040960;28;20479;-52
2022/05/15 15:11:14;;;;;;;4.40;2.13;;;;;;;;;;5040796;28;20088;-51
2022/05/15 15:13:40;;;;;;;3.90;2.35;;;;;;;;;;5036917;28;20275;-51
2022/05/15 15:16:06;;;;;;;3.38;2.22;;;;;;;;;;5040402;28;20035;-50